Terminal Aerodrome Forecast
Issued by NWS Charleston, SC

Home | Current Version | Previous Version | Text Only | Print | Product List | Glossary On
Versions: 1 2 3 4 5 6 7 8 9 10 11 12 13 14 15 16 17 18
000
FTUS42 KCHS 220349 AAB
TAFCHS
TAF AMD
KCHS 220349Z 2204/2224 VRB03KT P6SM VCSH SCT015 BKN060
      TEMPO 2204/2206 BKN015
     FM220600 VRB03KT 6SM BR SCT015 OVC025
      TEMPO 2207/2209 5SM BR OVC012
     FM220900 32004KT 2SM BR SCT003 OVC006
     FM221400 34008KT P6SM SCT012 BKN030
     FM221800 36008KT P6SM SCT040=

USA.gov is the U.S. government's official web portal to all federal, state and local government web resources and services.